createdAt,value
2019-01-06T00:02:23.568Z,7.67
2019-01-06T00:04:58.113Z,5.27
2019-01-06T00:07:54.062Z,5.90
2019-01-06T00:10:16.380Z,5.93
2019-01-06T00:12:50.461Z,5.20
2019-01-06T00:15:32.980Z,8.60
2019-01-06T00:18:10.245Z,7.07
2019-01-06T00:20:58.394Z,7.13
2019-01-06T00:23:50.498Z,6.50
2019-01-06T00:26:21.923Z,9.63
2019-01-06T00:28:59.919Z,6.83
2019-01-06T00:31:30.267Z,6.10
2019-01-06T00:34:14.703Z,4.23
2019-01-06T00:37:01.800Z,5.80
2019-01-06T00:39:36.873Z,5.53
2019-01-06T00:42:19.261Z,6.70
2019-01-06T00:45:05.865Z,6.03
2019-01-06T00:47:51.285Z,6.47
2019-01-06T00:50:27.228Z,5.77
2019-01-06T00:53:14.037Z,8.63
2019-01-06T00:55:53.713Z,7.27
2019-01-06T00:58:26.609Z,6.00
2019-01-06T01:01:01.479Z,7.23
2019-01-06T01:03:48.143Z,8.67
2019-01-06T01:06:36.809Z,9.20
2019-01-06T01:09:43.842Z,11.50
2019-01-06T01:12:26.317Z,10.07
2019-01-06T01:15:15.401Z,10.83
2019-01-06T01:17:48.729Z,10.27
2019-01-06T01:20:35.463Z,11.43
2019-01-06T01:23:05.752Z,13.70
2019-01-06T01:25:52.431Z,12.60
2019-01-06T01:28:38.634Z,12.93
2019-01-06T01:31:27.118Z,13.23
2019-01-06T01:33:57.299Z,9.70
2019-01-06T01:36:33.143Z,14.43
2019-01-06T01:39:09.153Z,10.80
2019-01-06T01:41:57.657Z,10.53
2019-01-06T01:44:28.021Z,7.23
2019-01-06T01:46:58.321Z,10.07
2019-01-06T01:49:31.530Z,8.17
2019-01-06T01:52:04.167Z,7.63
2019-01-06T01:54:50.565Z,7.73
2019-01-06T01:57:35.565Z,11.17
2019-01-06T02:00:22.995Z,11.03
2019-01-06T02:03:06.936Z,8.43
2019-01-06T02:05:53.350Z,8.27
2019-01-06T02:08:39.430Z,8.17
2019-01-06T02:11:15.401Z,9.87
2019-01-06T02:13:48.578Z,8.60
2019-01-06T02:16:36.757Z,10.20
2019-01-06T02:19:15.930Z,11.43
2019-01-06T02:22:04.074Z,6.97
2019-01-06T02:24:50.574Z,8.20
2019-01-06T02:27:37.416Z,10.37
2019-01-06T02:30:10.993Z,9.87
2019-01-06T02:32:41.208Z,10.70
2019-01-06T02:35:11.464Z,10.53
2019-01-06T02:37:44.315Z,9.77
2019-01-06T02:40:17.302Z,9.03
2019-01-06T02:43:00.019Z,10.73
2019-01-06T02:45:32.706Z,7.83
2019-01-06T02:48:19.511Z,8.53
2019-01-06T02:51:07.591Z,7.87
2019-01-06T02:53:37.906Z,5.83
2019-01-06T02:56:24.298Z,8.90
2019-01-06T02:58:54.405Z,6.40
2019-01-06T03:01:24.753Z,6.57
2019-01-06T03:03:54.847Z,8.77
2019-01-06T03:06:25.173Z,6.30
2019-01-06T03:08:55.305Z,9.03
2019-01-06T03:11:28.482Z,7.87
2019-01-06T03:14:07.307Z,7.03
2019-01-06T03:16:53.641Z,7.80
2019-01-06T03:19:40.725Z,5.23
2019-01-06T03:22:26.101Z,4.73
2019-01-06T03:25:13.023Z,6.50
2019-01-06T03:27:52.683Z,7.47
2019-01-06T03:30:29.063Z,4.40
2019-01-06T03:33:08.490Z,6.70
2019-01-06T03:35:41.561Z,6.57
2019-01-06T03:38:11.796Z,4.73
2019-01-06T03:40:54.190Z,7.03
2019-01-06T03:43:44.480Z,5.33
2019-01-06T03:46:17.719Z,7.20
2019-01-06T03:48:56.935Z,8.77
2019-01-06T03:51:29.993Z,6.63
2019-01-06T03:54:06.123Z,6.10
2019-01-06T03:56:51.252Z,4.67
2019-01-06T03:59:37.662Z,5.07
2019-01-06T04:02:38.889Z,9.13
2019-01-06T04:05:27.046Z,7.83
2019-01-06T04:08:15.194Z,4.97
2019-01-06T04:10:56.917Z,7.73
2019-01-06T04:13:29.866Z,4.80
2019-01-06T04:16:03.067Z,5.20
2019-01-06T04:18:48.008Z,3.60
2019-01-06T04:21:27.091Z,4.10
2019-01-06T04:24:06.377Z,3.97
2019-01-06T04:26:42.566Z,4.63
2019-01-06T04:29:21.944Z,6.03
2019-01-06T04:31:52.324Z,6.93
2019-01-06T04:34:25.743Z,5.57
2019-01-06T04:37:11.174Z,5.37
2019-01-06T04:39:44.164Z,5.40
2019-01-06T04:42:14.586Z,6.43
2019-01-06T04:44:50.927Z,6.90
2019-01-06T04:47:39.259Z,3.93
2019-01-06T04:50:15.358Z,4.83
2019-01-06T04:52:45.795Z,6.83
2019-01-06T04:55:22.040Z,6.00
2019-01-06T04:58:10.298Z,6.20
2019-01-06T05:00:56.728Z,4.63
2019-01-06T05:03:46.774Z,6.47
2019-01-06T05:06:33.273Z,5.80
2019-01-06T05:09:19.708Z,4.97
2019-01-06T05:11:52.859Z,6.70
2019-01-06T05:14:39.474Z,7.60
2019-01-06T05:17:12.583Z,4.87
2019-01-06T05:19:48.857Z,5.73
2019-01-06T05:22:22.053Z,4.07
2019-01-06T05:25:13.500Z,5.23
2019-01-06T05:27:46.362Z,8.63
2019-01-06T05:30:32.857Z,4.07
2019-01-06T05:33:03.164Z,4.23
2019-01-06T05:35:50.003Z,3.87
2019-01-06T05:38:36.544Z,6.47
2019-01-06T05:41:15.330Z,6.33
2019-01-06T05:43:56.124Z,5.33
2019-01-06T05:46:32.425Z,4.43
2019-01-06T05:49:08.466Z,4.70
2019-01-06T05:51:53.796Z,5.53
2019-01-06T05:54:47.052Z,4.93
2019-01-06T05:57:20.004Z,3.90
2019-01-06T05:59:56.366Z,5.67
2019-01-06T06:02:35.129Z,9.07
2019-01-06T06:05:11.399Z,9.70
2019-01-06T06:07:58.170Z,3.87
2019-01-06T06:10:47.457Z,2.90
2019-01-06T06:13:23.547Z,4.20
2019-01-06T06:16:10.135Z,3.87
2019-01-06T06:18:41.346Z,4.53
2019-01-06T06:21:14.354Z,4.10
2019-01-06T06:23:54.046Z,4.23
2019-01-06T06:26:24.290Z,3.67
2019-01-06T06:28:54.420Z,2.83
2019-01-06T06:31:24.708Z,3.53
2019-01-06T06:33:55.073Z,3.90
2019-01-06T06:36:30.690Z,5.27
2019-01-06T06:39:03.398Z,4.57
2019-01-06T06:41:33.596Z,2.53
2019-01-06T06:44:20.277Z,2.30
2019-01-06T06:47:02.846Z,2.13
2019-01-06T06:49:48.436Z,3.50
2019-01-06T06:52:35.095Z,2.90
2019-01-06T06:55:05.580Z,3.93
2019-01-06T06:58:07.654Z,3.47
2019-01-06T07:00:50.222Z,4.90
2019-01-06T07:03:32.516Z,6.13
2019-01-06T07:06:09.865Z,4.93
2019-01-06T07:08:52.072Z,2.77
2019-01-06T07:11:38.855Z,3.27
2019-01-06T07:14:18.166Z,4.00
2019-01-06T07:17:41.552Z,4.83
2019-01-06T07:20:20.559Z,6.90
2019-01-06T07:22:50.903Z,4.43
2019-01-06T07:25:26.477Z,4.60
2019-01-06T07:28:00.159Z,6.40
2019-01-06T07:30:36.415Z,7.07
2019-01-06T07:33:06.679Z,5.90
2019-01-06T07:35:37.078Z,4.63
2019-01-06T07:38:12.869Z,5.83
2019-01-06T07:40:55.206Z,6.27
2019-01-06T07:43:41.644Z,7.43
2019-01-06T07:46:28.225Z,5.93
2019-01-06T07:49:15.028Z,7.53
2019-01-06T07:52:03.890Z,4.63
2019-01-06T07:54:40.382Z,5.87
2019-01-06T07:57:28.394Z,6.70
2019-01-06T08:00:19.713Z,5.87
2019-01-06T08:02:52.731Z,5.27
2019-01-06T08:05:32.257Z,5.73
2019-01-06T08:08:18.060Z,5.47
2019-01-06T08:11:04.771Z,5.73
2019-01-06T08:13:38.147Z,7.13
2019-01-06T08:16:08.722Z,9.13
2019-01-06T08:18:47.000Z,6.80
2019-01-06T08:21:26.409Z,6.50
2019-01-06T08:24:25.166Z,10.17
2019-01-06T08:27:14.616Z,10.33
2019-01-06T08:30:04.828Z,8.27
2019-01-06T08:33:06.354Z,9.00
2019-01-06T08:35:38.478Z,9.20
2019-01-06T08:38:34.041Z,9.50
2019-01-06T08:41:06.381Z,8.00
2019-01-06T08:43:47.700Z,8.77
2019-01-06T08:46:47.509Z,11.70
2019-01-06T08:52:44.131Z,14.03
2019-01-06T08:55:32.969Z,9.37
2019-01-06T08:58:19.186Z,10.17
2019-01-06T09:01:13.081Z,10.73
2019-01-06T09:04:02.796Z,9.23
2019-01-06T09:06:44.253Z,9.20
2019-01-06T09:10:00.260Z,9.80
2019-01-06T09:12:32.323Z,12.20
2019-01-06T09:15:09.815Z,9.33
2019-01-06T09:18:04.286Z,12.70
2019-01-06T09:20:42.326Z,12.70
2019-01-06T09:24:03.381Z,11.90
2019-01-06T09:26:18.880Z,13.70
2019-01-06T09:29:08.499Z,13.50
2019-01-06T09:32:02.384Z,17.97
2019-01-06T09:34:49.421Z,15.87
2019-01-06T09:37:32.185Z,12.53
2019-01-06T09:40:33.272Z,13.77
2019-01-06T09:43:21.051Z,10.50
2019-01-06T09:46:12.268Z,14.87
2019-01-06T09:49:03.445Z,9.87
2019-01-06T09:51:51.727Z,12.23
2019-01-06T09:54:32.359Z,14.57
2019-01-06T09:57:11.989Z,13.27
2019-01-06T09:59:58.036Z,13.43
2019-01-06T10:02:49.249Z,9.50
2019-01-06T10:05:25.405Z,14.63
2019-01-06T10:08:02.515Z,12.57
2019-01-06T10:10:57.696Z,11.70
2019-01-06T10:13:49.551Z,8.57
2019-01-06T10:16:36.632Z,8.83
2019-01-06T10:19:19.025Z,8.77
2019-01-06T10:22:01.066Z,10.63
2019-01-06T10:24:34.371Z,7.37
2019-01-06T10:27:19.691Z,7.73
2019-01-06T10:30:01.723Z,6.93
2019-01-06T10:32:48.061Z,8.37
2019-01-06T10:35:27.217Z,6.17
2019-01-06T10:38:14.063Z,7.27
2019-01-06T10:41:00.523Z,5.83
2019-01-06T10:46:45.189Z,5.47
2019-01-06T10:49:31.709Z,10.23
2019-01-06T10:52:07.991Z,7.10
2019-01-06T10:54:40.956Z,8.37
2019-01-06T10:57:29.449Z,6.80
2019-01-06T11:00:02.764Z,8.83
2019-01-06T11:02:49.238Z,8.57
2019-01-06T11:05:36.159Z,9.30
2019-01-06T11:08:25.308Z,11.00
2019-01-06T11:10:58.814Z,7.23
2019-01-06T11:13:29.008Z,8.47
2019-01-06T11:16:18.142Z,11.40
2019-01-06T11:19:04.826Z,6.13
2019-01-06T11:21:35.256Z,9.70
2019-01-06T11:24:05.358Z,6.20
2019-01-06T11:26:54.795Z,4.93
2019-01-06T11:29:36.795Z,7.40
2019-01-06T11:32:12.819Z,5.83
2019-01-06T11:34:53.633Z,7.23
2019-01-06T11:37:23.927Z,7.53
2019-01-06T11:39:54.573Z,7.33
2019-01-06T11:42:36.411Z,7.00
2019-01-06T11:45:16.835Z,6.90
2019-01-06T11:48:02.112Z,8.53
2019-01-06T11:50:55.157Z,6.13
2019-01-06T11:53:29.921Z,6.37
2019-01-06T11:56:19.264Z,9.80
2019-01-06T11:58:49.522Z,8.20
2019-01-06T12:01:28.349Z,9.10
2019-01-06T12:04:14.034Z,9.33
2019-01-06T12:06:57.971Z,7.63
2019-01-06T12:09:31.241Z,7.57
2019-01-06T12:12:19.464Z,11.10
2019-01-06T12:14:49.847Z,7.03
2019-01-06T12:17:39.483Z,8.83
2019-01-06T12:20:18.524Z,6.73
2019-01-06T12:22:55.110Z,8.27
2019-01-06T12:25:25.323Z,6.97
2019-01-06T12:27:55.974Z,6.80
2019-01-06T12:30:48.874Z,9.37
2019-01-06T12:33:23.722Z,8.93
2019-01-06T12:36:16.282Z,8.57
2019-01-06T12:39:02.951Z,8.47
2019-01-06T12:41:35.582Z,7.40
2019-01-06T12:44:22.205Z,7.77
2019-01-06T12:46:58.378Z,8.67
2019-01-06T12:49:37.270Z,5.70
2019-01-06T12:52:27.524Z,10.70
2019-01-06T12:54:58.006Z,10.07
2019-01-06T12:57:44.696Z,9.60
2019-01-06T13:00:17.890Z,7.43
2019-01-06T13:02:48.201Z,7.70
2019-01-06T13:05:35.082Z,8.43
2019-01-06T13:08:20.376Z,8.33
2019-01-06T13:10:51.546Z,8.00
2019-01-06T13:13:38.582Z,7.93
2019-01-06T13:16:08.892Z,8.00
2019-01-06T13:18:55.371Z,7.30
2019-01-06T13:21:25.681Z,8.03
2019-01-06T13:23:56.380Z,7.20
2019-01-06T13:26:32.489Z,5.83
2019-01-06T13:29:22.000Z,6.73
2019-01-06T13:31:52.203Z,8.23
2019-01-06T13:34:38.927Z,7.83
2019-01-06T13:37:25.662Z,6.67
2019-01-06T13:39:56.063Z,6.33
2019-01-06T13:42:26.557Z,10.47
2019-01-06T13:45:12.192Z,9.13
2019-01-06T13:47:58.882Z,8.00
2019-01-06T13:50:34.937Z,9.53
2019-01-06T13:53:21.349Z,7.57
2019-01-06T13:55:59.463Z,7.77
2019-01-06T13:58:30.741Z,13.00
2019-01-06T14:01:17.889Z,11.43
2019-01-06T14:04:04.400Z,10.13
2019-01-06T14:06:46.889Z,14.10
2019-01-06T14:09:20.502Z,9.63
2019-01-06T14:12:11.407Z,11.20
2019-01-06T14:15:15.563Z,12.50
2019-01-06T14:17:54.543Z,8.77
2019-01-06T14:20:30.926Z,9.87
2019-01-06T14:23:10.144Z,6.43
2019-01-06T14:25:48.350Z,6.53
2019-01-06T14:28:37.819Z,5.20
2019-01-06T14:31:13.888Z,7.57
2019-01-06T14:34:01.723Z,9.60
2019-01-06T14:36:43.974Z,7.73
2019-01-06T14:39:33.938Z,6.80
2019-01-06T14:42:21.104Z,12.30
2019-01-06T14:45:05.338Z,7.77
2019-01-06T14:47:36.677Z,9.03
2019-01-06T14:50:26.760Z,8.83
2019-01-06T14:53:09.078Z,8.03
2019-01-06T14:55:52.170Z,6.17
2019-01-06T14:58:28.091Z,10.27
2019-01-06T15:01:17.837Z,8.03
2019-01-06T15:04:11.453Z,8.30
2019-01-06T15:06:47.717Z,14.43
2019-01-06T15:09:35.418Z,8.93
2019-01-06T15:12:07.341Z,9.43
2019-01-06T15:14:55.586Z,10.93
2019-01-06T15:17:32.269Z,13.87
2019-01-06T15:20:18.879Z,13.00
2019-01-06T15:22:55.396Z,10.97
2019-01-06T15:25:37.178Z,9.93
2019-01-06T15:28:09.113Z,8.03
2019-01-06T15:30:55.226Z,11.20
2019-01-06T15:33:35.166Z,9.17
2019-01-06T15:36:23.458Z,12.93
2019-01-06T15:39:12.783Z,28.40
2019-01-06T15:42:01.298Z,9.70
2019-01-06T15:44:36.535Z,11.50
2019-01-06T15:47:25.805Z,14.03
2019-01-06T15:50:17.667Z,12.77
2019-01-06T15:52:57.208Z,10.83
2019-01-06T15:55:44.170Z,10.97
2019-01-06T15:58:21.633Z,11.67
2019-01-06T16:00:52.033Z,12.30
2019-01-06T16:03:28.189Z,11.43
2019-01-06T16:06:16.843Z,12.97
2019-01-06T16:08:54.610Z,12.67
2019-01-06T16:11:30.530Z,12.80
2019-01-06T16:14:03.551Z,12.80
2019-01-06T16:16:42.582Z,11.73
2019-01-06T16:19:22.284Z,14.97
2019-01-06T16:22:02.139Z,8.67
2019-01-06T16:24:37.959Z,10.33
2019-01-06T16:27:28.912Z,11.87
2019-01-06T16:29:59.224Z,11.87
2019-01-06T16:32:49.748Z,10.53
2019-01-06T16:35:28.798Z,10.77
2019-01-06T16:37:59.714Z,12.03
2019-01-06T16:40:39.613Z,9.60
2019-01-06T16:43:22.583Z,11.33
2019-01-06T16:46:09.163Z,10.63
2019-01-06T16:48:59.780Z,15.47
2019-01-06T16:51:37.512Z,10.50
2019-01-06T16:54:09.996Z,12.10
2019-01-06T16:56:45.647Z,11.37
2019-01-06T16:59:16.027Z,12.30
2019-01-06T17:01:46.613Z,10.20
2019-01-06T17:04:32.720Z,13.20
2019-01-06T17:07:08.580Z,13.50
2019-01-06T17:09:40.270Z,13.87
2019-01-06T17:12:28.805Z,14.17
2019-01-06T17:15:17.067Z,10.77
2019-01-06T17:18:04.153Z,11.57
2019-01-06T17:20:34.376Z,11.70
2019-01-06T17:23:18.850Z,10.97
2019-01-06T17:25:58.400Z,14.87
2019-01-06T17:28:34.433Z,15.37
2019-01-06T17:31:23.098Z,13.63
2019-01-06T17:33:57.381Z,15.70
2019-01-06T17:36:27.730Z,15.00
2019-01-06T17:39:13.290Z,16.23
2019-01-06T17:41:50.751Z,20.17
2019-01-06T17:44:26.732Z,16.70
2019-01-06T17:47:13.407Z,18.17
2019-01-06T17:49:43.644Z,16.03
2019-01-06T17:52:13.812Z,18.20
2019-01-06T17:55:05.208Z,17.53
2019-01-06T17:57:35.534Z,17.07
2019-01-06T18:00:24.151Z,19.50
2019-01-06T18:03:31.153Z,19.30
2019-01-06T18:05:56.447Z,18.83
2019-01-06T18:08:31.227Z,20.83
2019-01-06T18:11:07.404Z,21.53
2019-01-06T18:13:53.275Z,19.67
2019-01-06T18:16:23.933Z,20.33
2019-01-06T18:19:10.977Z,22.17
2019-01-06T18:21:57.670Z,21.73
2019-01-06T18:24:44.212Z,21.30
2019-01-06T18:27:32.855Z,20.93
2019-01-06T18:30:12.400Z,19.57
2019-01-06T18:32:47.059Z,20.73
2019-01-06T18:35:20.485Z,23.03
2019-01-06T18:38:12.256Z,25.40
2019-01-06T18:40:53.398Z,21.87
2019-01-06T18:43:39.797Z,25.90
2019-01-06T18:46:25.345Z,26.10
2019-01-06T18:48:55.579Z,21.73
2019-01-06T18:51:44.443Z,25.00
2019-01-06T18:54:15.041Z,25.23
2019-01-06T18:56:53.320Z,26.17
2019-01-06T18:59:23.896Z,26.03
2019-01-06T19:01:59.206Z,26.10
2019-01-06T19:04:40.169Z,25.43
2019-01-06T19:07:20.212Z,27.00
2019-01-06T19:10:00.557Z,34.07
2019-01-06T19:12:47.817Z,29.07
2019-01-06T19:15:30.451Z,22.60
2019-01-06T19:18:19.434Z,24.13
2019-01-06T19:20:59.767Z,25.10
2019-01-06T19:23:30.103Z,24.77
2019-01-06T19:26:17.262Z,23.63
2019-01-06T19:29:08.874Z,22.40
2019-01-06T19:31:55.081Z,36.97
2019-01-06T19:34:29.240Z,44.70
2019-01-06T19:37:02.501Z,33.23
2019-01-06T19:39:39.261Z,30.23
2019-01-06T19:42:30.248Z,30.07
2019-01-06T19:45:21.184Z,34.37
2019-01-06T19:48:09.606Z,30.23
2019-01-06T19:50:50.272Z,25.67
2019-01-06T19:53:29.899Z,31.83
2019-01-06T19:56:00.158Z,26.00
2019-01-06T19:58:46.352Z,28.50
2019-01-06T20:01:19.524Z,28.70
2019-01-06T20:03:56.109Z,31.07
2019-01-06T20:06:45.813Z,29.37
2019-01-06T20:09:19.190Z,28.70
2019-01-06T20:11:59.432Z,30.23
2019-01-06T20:14:46.234Z,31.80
2019-01-06T20:17:17.164Z,29.70
2019-01-06T20:20:04.833Z,28.73
2019-01-06T20:22:35.257Z,25.23
2019-01-06T20:25:22.101Z,27.60
2019-01-06T20:27:56.941Z,28.00
2019-01-06T20:30:33.573Z,30.13
2019-01-06T20:33:04.818Z,27.30
2019-01-06T20:35:42.648Z,27.90
2019-01-06T20:38:22.131Z,25.73
2019-01-06T20:41:04.926Z,25.60
2019-01-06T20:43:50.770Z,29.80
2019-01-06T20:46:47.899Z,26.27
2019-01-06T20:49:17.796Z,32.60
2019-01-06T20:51:48.506Z,32.50
2019-01-06T20:54:29.665Z,30.00
2019-01-06T20:57:08.772Z,27.57
2019-01-06T20:59:55.272Z,31.73
2019-01-06T21:02:44.033Z,28.77
2019-01-06T21:05:17.175Z,29.00
2019-01-06T21:07:47.577Z,28.97
2019-01-06T21:10:33.940Z,29.23
2019-01-06T21:13:10.377Z,32.93
2019-01-06T21:15:52.847Z,28.73
2019-01-06T21:18:29.041Z,34.63
2019-01-06T21:21:15.919Z,30.63
2019-01-06T21:23:51.573Z,30.70
2019-01-06T21:26:24.753Z,32.03
2019-01-06T21:29:13.355Z,35.20
2019-01-06T21:31:59.006Z,31.30
2019-01-06T21:34:32.366Z,34.67
2019-01-06T21:37:22.277Z,31.00
2019-01-06T21:40:08.119Z,30.27
2019-01-06T21:42:38.649Z,34.87
2019-01-06T21:45:25.444Z,33.77
2019-01-06T21:48:02.101Z,33.40
2019-01-06T21:50:39.872Z,34.20
2019-01-06T21:53:14.332Z,40.40
2019-01-06T21:56:02.012Z,42.70
2019-01-06T21:58:51.743Z,38.30
2019-01-06T22:01:22.026Z,44.07
2019-01-06T22:03:52.240Z,37.67
2019-01-06T22:06:33.295Z,36.80
2019-01-06T22:09:09.403Z,38.40
2019-01-06T22:11:51.887Z,37.20
2019-01-06T22:14:34.467Z,44.60
2019-01-06T22:17:08.002Z,38.30
2019-01-06T22:19:43.859Z,47.47
2019-01-06T22:22:20.226Z,46.83
2019-01-06T22:25:07.464Z,39.07
2019-01-06T22:27:46.879Z,42.30
2019-01-06T22:30:30.067Z,42.10
2019-01-06T22:33:04.243Z,47.57
2019-01-06T22:35:43.327Z,39.03
2019-01-06T22:38:22.800Z,41.13
2019-01-06T22:41:05.049Z,41.73
2019-01-06T22:43:36.546Z,40.87
2019-01-06T22:46:23.052Z,39.93
2019-01-06T22:48:56.300Z,51.50
2019-01-06T22:51:26.633Z,44.10
2019-01-06T22:54:12.828Z,37.17
2019-01-06T22:56:59.515Z,41.17
2019-01-06T22:59:49.497Z,38.03
2019-01-06T23:02:22.427Z,48.67
2019-01-06T23:04:52.706Z,43.30
2019-01-06T23:07:42.838Z,40.23
2019-01-06T23:10:36.263Z,42.53
2019-01-06T23:13:06.589Z,37.93
2019-01-06T23:15:48.977Z,38.00
2019-01-06T23:18:27.821Z,43.40
2019-01-06T23:21:00.565Z,42.00
2019-01-06T23:23:30.706Z,45.60
2019-01-06T23:26:02.142Z,45.43
2019-01-06T23:28:48.892Z,41.33
2019-01-06T23:31:22.567Z,45.80
2019-01-06T23:34:02.019Z,41.83
2019-01-06T23:36:44.446Z,40.20
2019-01-06T23:39:20.576Z,42.33
2019-01-06T23:42:06.665Z,39.40
2019-01-06T23:44:53.279Z,40.20
2019-01-06T23:47:23.644Z,54.10
2019-01-06T23:49:53.825Z,46.67
2019-01-06T23:52:26.910Z,45.30
2019-01-06T23:55:13.844Z,48.20
2019-01-06T23:58:02.571Z,44.67
